Time;durP1;ratioP1;P1;durP2;ratioP2;P2;SDS_P1;SDS_P2;PMS_P1;PMS_P2;Temp;Humidity;BMP_temperature;BMP_pressure;BME280_temperature;BME280_humidity;BME280_pressure;Samples;Min_cycle;Max_cycle;Signal;HPM_P1;HPM_P2
2021/12/11 00:00:17;;;;;;;;;;;0.80;99.90;;;;;;5002133;28;20272;-86
2021/12/11 00:02:52;;;;;;;;;;;0.80;99.90;;;;;;5001441;28;19983;-87
2021/12/11 00:05:18;;;;;;;;;;;0.90;99.90;;;;;;4981021;28;20000;-88
2021/12/11 00:07:44;;;;;;;;;;;0.90;99.90;;;;;;4999155;28;19964;-85
2021/12/11 00:10:13;;;;;;;;;;;0.90;99.90;;;;;;4998611;28;19952;-86
2021/12/11 00:12:50;;;;;;;;;;;0.90;99.90;;;;;;4997162;28;19914;-86
2021/12/11 00:15:24;;;;;;;;;;;0.90;99.90;;;;;;4991559;28;19921;-86
2021/12/11 00:17:56;;;;;;;;;;;0.90;99.90;;;;;;4993919;28;20044;-86
2021/12/11 00:20:24;;;;;;;;;;;0.90;99.90;;;;;;5002122;28;20493;-86
2021/12/11 00:22:50;;;;;;;;;;;0.90;99.90;;;;;;4977479;28;20382;-86
2021/12/11 00:25:17;;;;;;;;;;;0.90;99.90;;;;;;4994533;28;19949;-86
2021/12/11 00:27:43;;;;;;;;;;;0.90;99.90;;;;;;4998418;28;19909;-86
2021/12/11 00:30:10;;;;;;;;;;;0.90;99.90;;;;;;5016705;28;19956;-86
2021/12/11 00:32:36;;;;;;;;;;;0.90;99.90;;;;;;4996808;28;19992;-86
2021/12/11 00:35:05;;;;;;;;;;;0.90;99.90;;;;;;4986352;28;20049;-86
2021/12/11 00:37:30;;;;;;;;;;;0.90;99.90;;;;;;4993727;28;19910;-86
2021/12/11 00:39:59;;;;;;;;;;;0.90;99.90;;;;;;5001971;28;19917;-86
2021/12/11 00:42:32;;;;;;;;;;;0.90;99.90;;;;;;5008044;28;20000;-86
2021/12/11 00:44:59;;;;;;;;;;;0.90;99.90;;;;;;4990610;28;19937;-86
2021/12/11 00:47:26;;;;;;;;;;;0.80;99.90;;;;;;5007563;28;19914;-86
2021/12/11 00:49:52;;;;;;;;;;;0.80;99.90;;;;;;5002849;28;19910;-86
2021/12/11 00:52:18;;;;;;;;;;;0.70;99.90;;;;;;4998945;28;19968;-85
2021/12/11 00:54:44;;;;;;;;;;;0.80;99.90;;;;;;5008062;28;19909;-86
2021/12/11 00:57:19;;;;;;;;;;;0.80;99.90;;;;;;4997540;28;19953;-86
2021/12/11 00:59:44;;;;;;;;;;;0.80;99.90;;;;;;5002611;28;20423;-86
2021/12/11 01:02:11;;;;;;;;;;;0.80;99.90;;;;;;5005624;28;19913;-86
2021/12/11 01:04:41;;;;;;;;;;;0.70;99.90;;;;;;5003312;28;19913;-86
2021/12/11 01:07:20;;;;;;;;;;;0.70;99.90;;;;;;5014654;28;19913;-86
2021/12/11 01:09:49;;;;;;;;;;;0.70;99.90;;;;;;4997225;28;19916;-86
2021/12/11 01:12:24;;;;;;;;;;;0.70;99.90;;;;;;5008845;28;19992;-87
2021/12/11 01:14:54;;;;;;;;;;;0.70;99.90;;;;;;5003232;28;19913;-86
2021/12/11 01:17:24;;;;;;;;;;;0.70;99.90;;;;;;4999492;28;19909;-86
2021/12/11 01:19:52;;;;;;;;;;;0.70;99.90;;;;;;5002588;28;20000;-86
2021/12/11 01:22:32;;;;;;;;;;;0.70;99.90;;;;;;5008706;28;20363;-87
2021/12/11 01:24:59;;;;;;;;;;;0.70;99.90;;;;;;4999008;28;19913;-87
2021/12/11 01:27:26;;;;;;;;;;;0.70;99.90;;;;;;4999287;28;19905;-87
2021/12/11 01:29:56;;;;;;;;;;;0.70;99.90;;;;;;5004733;28;20398;-86
2021/12/11 01:32:22;;;;;;;;;;;0.70;99.90;;;;;;5001376;28;20388;-88
2021/12/11 01:34:48;;;;;;;;;;;0.70;99.90;;;;;;4986226;28;19960;-85
2021/12/11 01:37:15;;;;;;;;;;;0.70;99.90;;;;;;4999522;28;19976;-87
2021/12/11 01:39:40;;;;;;;;;;;0.70;99.90;;;;;;5030771;28;19953;-86
2021/12/11 01:42:14;;;;;;;;;;;0.70;99.90;;;;;;5003498;28;19910;-86
2021/12/11 01:44:40;;;;;;;;;;;0.80;99.90;;;;;;5003030;28;19917;-87
2021/12/11 01:47:09;;;;;;;;;;;0.80;99.90;;;;;;4979021;28;19913;-87
2021/12/11 01:49:35;;;;;;;;;;;0.80;99.90;;;;;;4995317;28;20411;-87
2021/12/11 01:52:18;;;;;;;;;;;0.80;99.90;;;;;;5010558;28;19960;-86
2021/12/11 01:54:46;;;;;;;;;;;0.80;99.90;;;;;;5012197;28;20351;-86
2021/12/11 01:57:14;;;;;;;;;;;0.80;99.90;;;;;;4996382;28;19948;-86
2021/12/11 01:59:42;;;;;;;;;;;0.90;99.90;;;;;;4997021;28;19953;-86
2021/12/11 02:02:11;;;;;;;;;;;0.90;99.90;;;;;;4997811;28;19913;-87
2021/12/11 02:04:39;;;;;;;;;;;0.90;99.90;;;;;;4970619;28;20040;-86
2021/12/11 02:07:10;;;;;;;;;;;0.90;99.90;;;;;;4985213;28;19914;-87
2021/12/11 02:09:37;;;;;;;;;;;0.90;99.90;;;;;;5002791;28;19910;-87
2021/12/11 02:12:20;;;;;;;;;;;0.90;99.90;;;;;;4983906;28;19949;-88
2021/12/11 02:14:50;;;;;;;;;;;0.80;99.90;;;;;;5003284;28;19935;-86
2021/12/11 02:17:50;;;;;;;;;;;0.90;99.90;;;;;;4998331;28;20013;-87
2021/12/11 02:20:20;;;;;;;;;;;0.90;99.90;;;;;;4991958;28;19909;-85
2021/12/11 02:22:48;;;;;;;;;;;0.80;99.90;;;;;;5000857;28;19993;-85
2021/12/11 02:25:23;;;;;;;;;;;0.90;99.90;;;;;;4983978;28;20380;-86
2021/12/11 02:27:53;;;;;;;;;;;0.90;99.90;;;;;;5001466;28;19915;-86
2021/12/11 02:30:24;;;;;;;;;;;0.90;99.90;;;;;;5000953;28;20191;-87
2021/12/11 02:32:58;;;;;;;;;;;0.90;99.90;;;;;;4986720;28;19910;-86
2021/12/11 02:35:37;;;;;;;;;;;0.90;99.90;;;;;;4982382;28;19920;-87
2021/12/11 02:38:11;;;;;;;;;;;0.90;99.90;;;;;;4997042;28;19909;-86
2021/12/11 02:40:37;;;;;;;;;;;0.90;99.90;;;;;;4996980;28;19929;-86
2021/12/11 02:43:08;;;;;;;;;;;0.90;99.90;;;;;;5001905;28;20315;-86
2021/12/11 02:45:39;;;;;;;;;;;0.90;99.90;;;;;;4995741;28;19910;-86
2021/12/11 02:48:11;;;;;;;;;;;1.00;99.90;;;;;;5001235;28;20478;-87
2021/12/11 02:50:42;;;;;;;;;;;1.00;99.90;;;;;;5010902;28;19909;-86
2021/12/11 02:53:34;;;;;;;;;;;1.00;99.90;;;;;;5002181;28;20394;-86
2021/12/11 02:56:00;;;;;;;;;;;1.00;99.90;;;;;;5008604;28;19914;-86
2021/12/11 02:58:27;;;;;;;;;;;1.00;99.90;;;;;;5017313;28;20376;-86
2021/12/11 03:00:56;;;;;;;;;;;0.90;99.90;;;;;;4984627;28;19968;-87
2021/12/11 03:03:25;;;;;;;;;;;0.90;99.90;;;;;;4988893;28;19921;-86
2021/12/11 03:06:01;;;;;;;;;;;0.90;99.90;;;;;;4990390;28;20036;-86
2021/12/11 03:08:26;;;;;;;;;;;1.00;99.90;;;;;;5009288;28;20542;-87
2021/12/11 03:10:55;;;;;;;;;;;1.00;99.90;;;;;;5000077;28;19910;-87
2021/12/11 03:13:21;;;;;;;;;;;1.00;99.90;;;;;;5009331;28;19909;-87
2021/12/11 03:15:47;;;;;;;;;;;0.90;99.90;;;;;;4995743;28;19928;-86
2021/12/11 03:18:13;;;;;;;;;;;0.90;99.90;;;;;;4995047;28;19909;-86
2021/12/11 03:20:40;;;;;;;;;;;0.90;99.90;;;;;;4998372;28;20407;-87
2021/12/11 03:23:07;;;;;;;;;;;1.00;99.90;;;;;;5025629;28;19918;-86
2021/12/11 03:25:34;;;;;;;;;;;1.00;99.90;;;;;;4991646;28;20376;-86
2021/12/11 03:28:02;;;;;;;;;;;1.00;99.90;;;;;;4990759;28;19947;-86
2021/12/11 03:30:29;;;;;;;;;;;0.90;99.90;;;;;;4999596;28;19909;-87
2021/12/11 03:32:58;;;;;;;;;;;0.90;99.90;;;;;;4990859;28;19921;-87
2021/12/11 03:35:24;;;;;;;;;;;0.90;99.90;;;;;;4999492;28;19909;-87
2021/12/11 03:37:49;;;;;;;;;;;0.90;99.90;;;;;;4996973;28;19920;-87
2021/12/11 03:40:15;;;;;;;;;;;0.90;99.90;;;;;;5001694;28;20004;-86
2021/12/11 03:42:42;;;;;;;;;;;0.90;99.90;;;;;;5002058;28;19956;-86
2021/12/11 03:45:10;;;;;;;;;;;1.00;99.90;;;;;;4977386;28;20436;-86
2021/12/11 03:47:38;;;;;;;;;;;0.90;99.90;;;;;;5000086;28;19910;-86
2021/12/11 03:50:07;;;;;;;;;;;0.90;99.90;;;;;;4996674;28;19951;-86
2021/12/11 03:52:33;;;;;;;;;;;0.90;99.90;;;;;;4995184;28;19945;-86
2021/12/11 03:54:59;;;;;;;;;;;1.00;99.90;;;;;;5012303;28;19969;-86
2021/12/11 03:57:28;;;;;;;;;;;0.90;99.90;;;;;;4994977;28;19909;-86
2021/12/11 03:59:54;;;;;;;;;;;0.90;99.90;;;;;;5013423;28;19917;-87
2021/12/11 04:02:25;;;;;;;;;;;1.00;99.90;;;;;;5001794;28;20286;-87
2021/12/11 04:04:55;;;;;;;;;;;0.90;99.90;;;;;;4994999;28;19952;-87
2021/12/11 04:07:26;;;;;;;;;;;1.00;99.90;;;;;;4998688;28;19909;-86
2021/12/11 04:09:52;;;;;;;;;;;0.90;99.90;;;;;;5000308;28;19913;-86
2021/12/11 04:12:18;;;;;;;;;;;1.00;99.90;;;;;;4995085;28;20044;-87
2021/12/11 04:14:45;;;;;;;;;;;1.00;99.90;;;;;;4981588;28;19940;-86
2021/12/11 04:17:12;;;;;;;;;;;1.00;99.90;;;;;;4990684;28;19910;-85
2021/12/11 04:19:38;;;;;;;;;;;1.00;99.90;;;;;;5000095;28;19953;-86
2021/12/11 04:22:04;;;;;;;;;;;1.00;99.90;;;;;;5000695;28;20265;-85
2021/12/11 04:24:33;;;;;;;;;;;1.00;99.90;;;;;;4975465;28;20408;-86
2021/12/11 04:27:01;;;;;;;;;;;1.00;99.90;;;;;;4995870;28;20141;-87
2021/12/11 04:29:28;;;;;;;;;;;0.90;99.90;;;;;;5004784;28;19913;-87
2021/12/11 04:31:54;;;;;;;;;;;0.90;99.90;;;;;;4985202;28;20363;-86
2021/12/11 04:34:22;;;;;;;;;;;0.90;99.90;;;;;;5001884;28;19914;-87
2021/12/11 04:36:58;;;;;;;;;;;0.90;99.90;;;;;;4993125;28;19956;-87
2021/12/11 04:39:25;;;;;;;;;;;0.90;99.90;;;;;;5005944;28;19910;-87
2021/12/11 04:42:01;;;;;;;;;;;0.90;99.90;;;;;;4981209;28;19910;-86
2021/12/11 04:44:35;;;;;;;;;;;1.00;99.90;;;;;;5003220;28;19918;-86
2021/12/11 04:47:03;;;;;;;;;;;1.00;99.90;;;;;;4998068;28;19949;-87
2021/12/11 04:49:37;;;;;;;;;;;0.90;99.90;;;;;;5000639;28;19919;-86
2021/12/11 04:52:09;;;;;;;;;;;0.90;99.90;;;;;;5001401;28;19952;-85
2021/12/11 04:54:58;;;;;;;;;;;1.00;99.90;;;;;;5000819;28;19918;-86
2021/12/11 04:58:43;;;;;;;;;;;0.90;99.90;;;;;;4978742;28;19909;-86
2021/12/11 05:00:58;;;;;;;;;;;0.90;99.90;;;;;;4972998;28;20008;-87
2021/12/11 05:03:32;;;;;;;;;;;0.90;99.90;;;;;;4997191;28;20356;-87
2021/12/11 05:11:40;;;;;;;;;;;0.90;99.90;;;;;;5002071;28;20044;-87
2021/12/11 05:14:07;;;;;;;;;;;1.00;99.90;;;;;;4990633;28;20373;-87
2021/12/11 05:16:33;;;;;;;;;;;1.00;99.90;;;;;;4997679;28;20372;-87
2021/12/11 05:18:58;;;;;;;;;;;1.00;99.90;;;;;;5003703;28;19917;-87
2021/12/11 05:21:24;;;;;;;;;;;1.00;99.90;;;;;;5006593;28;19916;-87
2021/12/11 05:23:51;;;;;;;;;;;1.00;99.90;;;;;;4997755;28;20025;-86
2021/12/11 05:26:18;;;;;;;;;;;1.00;99.90;;;;;;4979638;28;19916;-86
2021/12/11 05:28:45;;;;;;;;;;;1.00;99.90;;;;;;4997958;28;20431;-85
2021/12/11 05:31:10;;;;;;;;;;;1.00;99.90;;;;;;5017256;28;19952;-86
2021/12/11 05:33:37;;;;;;;;;;;1.00;99.90;;;;;;4989768;28;19953;-87
2021/12/11 05:36:03;;;;;;;;;;;1.00;99.90;;;;;;4996394;28;19909;-86
2021/12/11 05:38:29;;;;;;;;;;;1.00;99.90;;;;;;5002021;28;19940;-87
2021/12/11 05:41:01;;;;;;;;;;;1.00;99.90;;;;;;5003614;28;19917;-87
2021/12/11 05:43:27;;;;;;;;;;;1.00;99.90;;;;;;4988035;28;19924;-86
2021/12/11 05:45:52;;;;;;;;;;;1.00;99.90;;;;;;4999407;28;19910;-87
2021/12/11 05:48:18;;;;;;;;;;;1.00;99.90;;;;;;4998553;28;20513;-86
2021/12/11 05:50:46;;;;;;;;;;;1.00;99.90;;;;;;5005146;28;20004;-86
2021/12/11 05:53:12;;;;;;;;;;;1.00;99.90;;;;;;4987609;28;20001;-86
2021/12/11 05:55:40;;;;;;;;;;;1.00;99.90;;;;;;4998356;28;20311;-87
2021/12/11 05:58:15;;;;;;;;;;;1.00;99.90;;;;;;5003318;28;19925;-86
2021/12/11 06:00:42;;;;;;;;;;;1.00;99.90;;;;;;4995622;28;20494;-86
2021/12/11 06:03:08;;;;;;;;;;;1.00;99.90;;;;;;4997990;28;19920;-86
2021/12/11 06:05:34;;;;;;;;;;;1.00;99.90;;;;;;4994937;28;19910;-87
2021/12/11 06:08:00;;;;;;;;;;;1.10;99.90;;;;;;4989546;28;19917;-86
2021/12/11 06:10:27;;;;;;;;;;;1.00;99.90;;;;;;5001290;28;20280;-87
2021/12/11 06:12:54;;;;;;;;;;;1.00;99.90;;;;;;4995337;28;19909;-86
2021/12/11 06:15:21;;;;;;;;;;;1.00;99.90;;;;;;5002653;28;19957;-87
2021/12/11 06:17:46;;;;;;;;;;;1.00;99.90;;;;;;4997760;28;19910;-87
2021/12/11 06:20:14;;;;;;;;;;;1.00;99.90;;;;;;5007670;28;19906;-87
2021/12/11 06:22:39;;;;;;;;;;;1.00;99.90;;;;;;5000184;28;20154;-86
2021/12/11 06:25:13;;;;;;;;;;;1.00;99.90;;;;;;4999399;28;20415;-87
2021/12/11 06:27:39;;;;;;;;;;;1.10;99.90;;;;;;5030161;28;19913;-87
2021/12/11 06:30:06;;;;;;;;;;;1.00;99.90;;;;;;4990005;28;19917;-87
2021/12/11 06:32:32;;;;;;;;;;;1.10;99.90;;;;;;4993989;28;19968;-87
2021/12/11 06:35:00;;;;;;;;;;;1.00;99.90;;;;;;5018590;28;19945;-87
2021/12/11 06:37:26;;;;;;;;;;;1.00;99.90;;;;;;4997299;28;20292;-87
2021/12/11 06:39:53;;;;;;;;;;;1.00;99.90;;;;;;5000402;28;19916;-85
2021/12/11 06:42:19;;;;;;;;;;;1.00;99.90;;;;;;5009304;28;19910;-86
2021/12/11 06:44:45;;;;;;;;;;;1.10;99.90;;;;;;4990878;28;19957;-86
2021/12/11 06:47:11;;;;;;;;;;;1.10;99.90;;;;;;4984684;28;19910;-87
2021/12/11 06:49:39;;;;;;;;;;;1.10;99.90;;;;;;4985864;28;19913;-86
2021/12/11 06:52:07;;;;;;;;;;;1.00;99.90;;;;;;4990041;28;19910;-86
2021/12/11 06:54:33;;;;;;;;;;;1.00;99.90;;;;;;4989023;28;19910;-87
2021/12/11 06:56:58;;;;;;;;;;;1.00;99.90;;;;;;4995031;28;19960;-87
2021/12/11 06:59:24;;;;;;;;;;;1.00;99.90;;;;;;4998147;28;20000;-86
2021/12/11 07:01:51;;;;;;;;;;;1.00;99.90;;;;;;4982917;28;19910;-87
2021/12/11 07:04:16;;;;;;;;;;;1.00;99.90;;;;;;4999793;28;19917;-87
2021/12/11 07:06:44;;;;;;;;;;;1.00;99.90;;;;;;4975707;28;20618;-86
2021/12/11 07:09:11;;;;;;;;;;;1.00;99.90;;;;;;4992273;28;19914;-87
2021/12/11 07:11:39;;;;;;;;;;;1.00;99.90;;;;;;4994001;28;20052;-87
2021/12/11 07:14:05;;;;;;;;;;;1.00;99.90;;;;;;5004550;28;20601;-87
2021/12/11 07:16:31;;;;;;;;;;;1.00;99.90;;;;;;4994287;28;20515;-87
2021/12/11 07:18:57;;;;;;;;;;;1.00;99.90;;;;;;5002960;28;19917;-88
2021/12/11 07:21:22;;;;;;;;;;;1.10;99.90;;;;;;5005154;28;19916;-87
2021/12/11 07:23:49;;;;;;;;;;;1.00;99.90;;;;;;4991387;28;19922;-87
2021/12/11 07:26:22;;;;;;;;;;;1.00;99.90;;;;;;4977890;28;19949;-87
2021/12/11 07:28:52;;;;;;;;;;;1.00;99.90;;;;;;4994442;28;20451;-86
2021/12/11 07:31:17;;;;;;;;;;;1.10;99.90;;;;;;4990221;28;19910;-85
2021/12/11 07:33:43;;;;;;;;;;;1.00;99.90;;;;;;4995408;28;19905;-86
2021/12/11 07:36:09;;;;;;;;;;;1.00;99.90;;;;;;4990541;28;20312;-86
2021/12/11 07:38:35;;;;;;;;;;;1.00;99.90;;;;;;4989355;28;20432;-86
2021/12/11 07:41:03;;;;;;;;;;;1.00;99.90;;;;;;4998136;28;19932;-86
2021/12/11 07:43:29;;;;;;;;;;;1.10;99.90;;;;;;4975839;28;19924;-86
2021/12/11 07:45:55;;;;;;;;;;;1.00;99.90;;;;;;4990005;28;19956;-87
2021/12/11 07:48:21;;;;;;;;;;;1.00;99.90;;;;;;4990671;28;20009;-88
2021/12/11 07:50:47;;;;;;;;;;;1.00;99.90;;;;;;4996214;28;20562;-86
2021/12/11 07:53:13;;;;;;;;;;;1.00;99.90;;;;;;4973940;28;20379;-86
2021/12/11 07:55:39;;;;;;;;;;;1.00;99.90;;;;;;4972595;28;20005;-88
2021/12/11 07:58:05;;;;;;;;;;;1.00;99.90;;;;;;4992590;28;19971;-85
2021/12/11 08:00:31;;;;;;;;;;;1.10;99.90;;;;;;5003246;28;19973;-88
2021/12/11 08:02:57;;;;;;;;;;;1.10;99.90;;;;;;4991671;28;19917;-87
2021/12/11 08:05:24;;;;;;;;;;;1.00;99.90;;;;;;5001640;28;19909;-86
2021/12/11 08:07:49;;;;;;;;;;;1.10;99.90;;;;;;4995001;28;19921;-86
2021/12/11 08:10:17;;;;;;;;;;;1.10;99.90;;;;;;5000702;28;19909;-87
2021/12/11 08:12:43;;;;;;;;;;;1.10;99.90;;;;;;4993003;28;19968;-86
2021/12/11 08:15:10;;;;;;;;;;;1.10;99.90;;;;;;5001408;28;19916;-86
2021/12/11 08:17:36;;;;;;;;;;;1.10;99.90;;;;;;4978306;28;19910;-86
2021/12/11 08:20:03;;;;;;;;;;;1.20;99.90;;;;;;4999444;28;19910;-85
2021/12/11 08:22:29;;;;;;;;;;;1.20;99.90;;;;;;5000043;28;21149;-87
2021/12/11 08:24:55;;;;;;;;;;;1.20;99.90;;;;;;4971233;28;19917;-87
2021/12/11 08:27:22;;;;;;;;;;;1.20;99.90;;;;;;4974541;28;20279;-87
2021/12/11 08:29:49;;;;;;;;;;;1.20;99.90;;;;;;4978239;28;19921;-86
2021/12/11 08:32:15;;;;;;;;;;;1.30;99.90;;;;;;4993349;28;20291;-87
2021/12/11 08:34:41;;;;;;;;;;;1.30;99.90;;;;;;4993143;28;19910;-88
2021/12/11 08:37:08;;;;;;;;;;;1.30;99.90;;;;;;4992763;28;19916;-87
2021/12/11 08:39:34;;;;;;;;;;;1.40;99.90;;;;;;4994376;28;19965;-87
2021/12/11 08:42:02;;;;;;;;;;;1.40;99.90;;;;;;4975392;28;19914;-86
2021/12/11 08:44:34;;;;;;;;;;;1.30;99.90;;;;;;4976036;28;19963;-86
2021/12/11 08:47:00;;;;;;;;;;;1.30;99.90;;;;;;4997552;28;20291;-87
2021/12/11 08:49:27;;;;;;;;;;;1.40;99.90;;;;;;4975312;28;19913;-88
2021/12/11 08:51:55;;;;;;;;;;;1.40;99.90;;;;;;5001725;28;20035;-88
2021/12/11 08:54:22;;;;;;;;;;;1.50;99.90;;;;;;5002315;28;20253;-89
2021/12/11 08:56:48;;;;;;;;;;;1.60;99.90;;;;;;5007530;28;19910;-89
2021/12/11 08:59:15;;;;;;;;;;;1.60;99.90;;;;;;5002694;28;20327;-87
2021/12/11 09:01:48;;;;;;;;;;;1.60;99.90;;;;;;4997842;28;19921;-87
2021/12/11 09:04:19;;;;;;;;;;;1.60;99.90;;;;;;4975912;28;19921;-88
2021/12/11 09:06:51;;;;;;;;;;;1.70;99.90;;;;;;4992049;28;20071;-88
2021/12/11 09:09:20;;;;;;;;;;;1.70;99.90;;;;;;4975652;28;19913;-87
2021/12/11 09:11:52;;;;;;;;;;;1.70;99.90;;;;;;4994488;28;19909;-89
2021/12/11 09:14:38;;;;;;;;;;;1.70;99.90;;;;;;4999027;28;20387;-88
2021/12/11 09:17:06;;;;;;;;;;;1.70;99.90;;;;;;4981480;28;20288;-87
2021/12/11 09:19:44;;;;;;;;;;;1.70;99.90;;;;;;4990353;28;19968;-88
2021/12/11 09:22:12;;;;;;;;;;;1.70;99.90;;;;;;4985263;28;20431;-89
2021/12/11 09:24:48;;;;;;;;;;;1.70;99.90;;;;;;5004748;28;20108;-88
2021/12/11 09:27:17;;;;;;;;;;;1.70;99.90;;;;;;4987331;28;19917;-88
2021/12/11 09:29:49;;;;;;;;;;;1.70;99.90;;;;;;5009300;28;19956;-89
2021/12/11 09:32:17;;;;;;;;;;;1.70;99.90;;;;;;5011312;28;19913;-89
2021/12/11 09:34:52;;;;;;;;;;;1.70;99.90;;;;;;5002315;28;19963;-89
2021/12/11 09:37:19;;;;;;;;;;;1.70;99.90;;;;;;4976319;28;19941;-88
2021/12/11 09:39:47;;;;;;;;;;;1.70;99.90;;;;;;4999612;28;19910;-89
2021/12/11 09:42:13;;;;;;;;;;;1.70;99.90;;;;;;4999541;28;19920;-89
2021/12/11 09:44:46;;;;;;;;;;;1.70;99.90;;;;;;4994850;28;20008;-87
2021/12/11 09:47:15;;;;;;;;;;;1.70;99.90;;;;;;4992567;28;20073;-89
2021/12/11 09:49:44;;;;;;;;;;;1.70;99.90;;;;;;4992093;28;19917;-90
2021/12/11 09:52:17;;;;;;;;;;;1.70;99.90;;;;;;4992811;28;19936;-88
2021/12/11 09:55:03;;;;;;;;;;;1.70;99.90;;;;;;5008492;28;19910;-88
2021/12/11 09:57:32;;;;;;;;;;;1.60;99.90;;;;;;5008048;28;19929;-89
2021/12/11 10:00:03;;;;;;;;;;;1.70;99.90;;;;;;4990779;28;19909;-88
2021/12/11 10:02:39;;;;;;;;;;;1.70;99.90;;;;;;5021826;28;20631;-90
2021/12/11 10:05:12;;;;;;;;;;;1.70;99.90;;;;;;4975888;28;20280;-89
2021/12/11 10:07:49;;;;;;;;;;;1.70;99.90;;;;;;4975993;28;19910;-89
2021/12/11 10:10:14;;;;;;;;;;;1.70;99.90;;;;;;4975697;28;19910;-91
2021/12/11 10:12:42;;;;;;;;;;;1.60;99.90;;;;;;4991960;28;20004;-89
2021/12/11 10:15:11;;;;;;;;;;;1.70;99.90;;;;;;4992003;28;19917;-88
2021/12/11 10:17:42;;;;;;;;;;;1.60;99.90;;;;;;4991627;28;19916;-89
2021/12/11 10:20:13;;;;;;;;;;;1.60;99.90;;;;;;4990962;28;20314;-88
2021/12/11 10:22:39;;;;;;;;;;;1.60;99.90;;;;;;5015243;28;20533;-89
2021/12/11 10:25:09;;;;;;;;;;;1.60;99.90;;;;;;5010613;28;19909;-91
2021/12/11 10:27:35;;;;;;;;;;;1.60;99.90;;;;;;4993897;28;19988;-89
2021/12/11 10:30:03;;;;;;;;;;;1.60;99.90;;;;;;4991166;28;19933;-88
2021/12/11 10:32:31;;;;;;;;;;;1.60;99.90;;;;;;5007712;28;19909;-89
2021/12/11 10:34:58;;;;;;;;;;;1.60;99.90;;;;;;4991288;28;19960;-91
2021/12/11 10:37:29;;;;;;;;;;;1.60;99.90;;;;;;4991340;28;20008;-88
2021/12/11 10:39:56;;;;;;;;;;;1.60;99.90;;;;;;4991219;28;19916;-89
2021/12/11 10:42:22;;;;;;;;;;;1.70;99.90;;;;;;5010948;28;20007;-89
2021/12/11 10:44:49;;;;;;;;;;;1.70;99.90;;;;;;4995126;28;19996;-88
2021/12/11 10:47:18;;;;;;;;;;;1.60;99.90;;;;;;5010555;28;19909;-87
2021/12/11 10:49:44;;;;;;;;;;;1.70;99.90;;;;;;4976815;28;19913;-87
2021/12/11 10:52:15;;;;;;;;;;;1.60;99.90;;;;;;4977842;28;19913;-88
2021/12/11 10:54:41;;;;;;;;;;;1.60;99.90;;;;;;4978463;28;19909;-88
2021/12/11 10:57:07;;;;;;;;;;;1.60;99.90;;;;;;4974375;28;20013;-87
2021/12/11 10:59:34;;;;;;;;;;;1.60;99.90;;;;;;4994857;28;19910;-88
2021/12/11 11:02:03;;;;;;;;;;;1.60;99.90;;;;;;4996820;28;19996;-86
2021/12/11 11:04:31;;;;;;;;;;;1.60;99.90;;;;;;4997098;28;19928;-89
2021/12/11 11:06:57;;;;;;;;;;;1.60;99.90;;;;;;5000267;28;20012;-89
2021/12/11 11:09:23;;;;;;;;;;;1.70;99.90;;;;;;4984795;28;20195;-88
2021/12/11 11:11:53;;;;;;;;;;;1.70;99.90;;;;;;4989874;28;19916;-89
2021/12/11 11:14:19;;;;;;;;;;;1.70;99.90;;;;;;4992098;28;19964;-90
2021/12/11 11:16:47;;;;;;;;;;;1.80;99.90;;;;;;4988441;28;19910;-90
2021/12/11 11:19:12;;;;;;;;;;;1.80;99.90;;;;;;4996996;28;19956;-88
2021/12/11 11:21:42;;;;;;;;;;;1.80;99.90;;;;;;4972547;28;19953;-88
2021/12/11 11:24:08;;;;;;;;;;;1.90;99.90;;;;;;4977476;28;19923;-89
2021/12/11 11:26:35;;;;;;;;;;;1.80;99.90;;;;;;4995750;28;19916;-88
2021/12/11 11:29:03;;;;;;;;;;;1.80;99.90;;;;;;4974990;28;19910;-88
2021/12/11 11:31:34;;;;;;;;;;;1.80;99.90;;;;;;4991627;28;19993;-88
2021/12/11 11:34:01;;;;;;;;;;;1.80;99.90;;;;;;5001651;28;20453;-88
2021/12/11 11:36:27;;;;;;;;;;;1.80;99.90;;;;;;5005746;28;19954;-88
2021/12/11 11:38:55;;;;;;;;;;;1.70;99.90;;;;;;4979150;28;20386;-88
2021/12/11 11:41:23;;;;;;;;;;;1.70;99.90;;;;;;4994927;28;19957;-88
2021/12/11 11:43:49;;;;;;;;;;;1.70;99.90;;;;;;5015538;28;19913;-88
2021/12/11 11:46:14;;;;;;;;;;;1.70;99.90;;;;;;4983516;28;20004;-89
2021/12/11 11:48:42;;;;;;;;;;;1.70;99.90;;;;;;4989463;28;20049;-90
2021/12/11 11:51:14;;;;;;;;;;;1.70;99.90;;;;;;4991222;28;20653;-88
2021/12/11 11:53:40;;;;;;;;;;;1.60;99.90;;;;;;4983166;28;19914;-88
2021/12/11 11:56:08;;;;;;;;;;;1.60;99.90;;;;;;5008120;28;19917;-89
2021/12/11 11:58:34;;;;;;;;;;;1.50;99.90;;;;;;4994694;28;20004;-89
2021/12/11 12:01:05;;;;;;;;;;;1.50;99.90;;;;;;5007635;28;20358;-89
2021/12/11 12:03:31;;;;;;;;;;;1.50;99.90;;;;;;4998386;28;19913;-89
2021/12/11 12:05:58;;;;;;;;;;;1.50;99.90;;;;;;4991873;28;19929;-89
2021/12/11 12:08:24;;;;;;;;;;;1.50;99.90;;;;;;4994728;28;20009;-89
2021/12/11 12:10:51;;;;;;;;;;;1.60;99.90;;;;;;4994398;28;19957;-89
2021/12/11 12:13:19;;;;;;;;;;;1.60;99.90;;;;;;4977855;28;20509;-88
2021/12/11 12:15:48;;;;;;;;;;;1.60;99.90;;;;;;4986618;28;19963;-90
2021/12/11 12:18:15;;;;;;;;;;;1.60;99.90;;;;;;4988430;28;19909;-91
2021/12/11 12:20:41;;;;;;;;;;;1.60;99.90;;;;;;4990904;28;20408;-89
2021/12/11 12:23:11;;;;;;;;;;;1.60;99.90;;;;;;4992516;28;20004;-90
2021/12/11 12:25:38;;;;;;;;;;;1.60;99.90;;;;;;4994376;28;19964;-89
2021/12/11 12:28:06;;;;;;;;;;;1.60;99.90;;;;;;4980520;28;19910;-88
2021/12/11 12:30:32;;;;;;;;;;;1.60;99.90;;;;;;4977501;28;20008;-89
2021/12/11 12:32:59;;;;;;;;;;;1.70;99.90;;;;;;5017314;28;20403;-89
2021/12/11 12:35:27;;;;;;;;;;;1.70;99.90;;;;;;4983826;28;19975;-89
2021/12/11 12:37:54;;;;;;;;;;;1.70;99.90;;;;;;4998773;28;19957;-92
2021/12/11 12:40:28;;;;;;;;;;;1.70;99.90;;;;;;4993919;28;19921;-90
2021/12/11 12:42:57;;;;;;;;;;;1.70;99.90;;;;;;4986421;28;19913;-90
2021/12/11 12:45:23;;;;;;;;;;;1.80;99.90;;;;;;4991732;28;19961;-89
2021/12/11 12:47:52;;;;;;;;;;;1.80;99.90;;;;;;4988660;28;20354;-89
2021/12/11 12:50:23;;;;;;;;;;;1.90;99.90;;;;;;4995318;28;19909;-89
2021/12/11 12:52:49;;;;;;;;;;;1.90;99.90;;;;;;4984235;28;19941;-88
2021/12/11 12:55:18;;;;;;;;;;;1.90;99.90;;;;;;4996416;28;19974;-91
2021/12/11 12:57:45;;;;;;;;;;;1.90;99.90;;;;;;4979684;28;19909;-91
2021/12/11 13:00:20;;;;;;;;;;;1.90;99.90;;;;;;4975241;28;19905;-88
2021/12/11 13:02:48;;;;;;;;;;;2.00;99.90;;;;;;4983867;28;19909;-88
2021/12/11 13:05:20;;;;;;;;;;;2.00;99.90;;;;;;4996414;28;20434;-88
2021/12/11 13:07:46;;;;;;;;;;;2.00;99.90;;;;;;5004516;28;20249;-89
2021/12/11 13:10:15;;;;;;;;;;;2.00;99.90;;;;;;4998404;28;20402;-89
2021/12/11 13:12:43;;;;;;;;;;;2.00;99.90;;;;;;4996173;28;19936;-88
2021/12/11 13:15:36;;;;;;;;;;;2.00;99.90;;;;;;4998830;28;19916;-88
2021/12/11 13:18:04;;;;;;;;;;;2.00;99.90;;;;;;4993866;28;19946;-88
2021/12/11 13:20:32;;;;;;;;;;;2.00;99.90;;;;;;4989510;28;19914;-88
2021/12/11 13:23:01;;;;;;;;;;;2.00;99.90;;;;;;5023350;28;19913;-89
2021/12/11 13:25:40;;;;;;;;;;;2.00;99.90;;;;;;4998675;28;20047;-88
2021/12/11 13:28:07;;;;;;;;;;;2.00;99.90;;;;;;5008659;28;19916;-89
2021/12/11 13:30:36;;;;;;;;;;;1.90;99.90;;;;;;4975485;28;20543;-88
2021/12/11 13:33:05;;;;;;;;;;;1.90;99.90;;;;;;4994601;28;19909;-89
2021/12/11 13:35:32;;;;;;;;;;;1.90;99.90;;;;;;5003075;28;19932;-89
2021/12/11 13:37:58;;;;;;;;;;;1.90;99.90;;;;;;4998050;28;20636;-90
2021/12/11 13:40:24;;;;;;;;;;;1.90;99.90;;;;;;4995772;28;19906;-89
2021/12/11 13:42:50;;;;;;;;;;;1.80;99.90;;;;;;4992179;28;19913;-89
2021/12/11 13:45:21;;;;;;;;;;;1.80;99.90;;;;;;4990685;28;20623;-89
2021/12/11 13:47:47;;;;;;;;;;;1.90;99.90;;;;;;4994163;28;19917;-88
2021/12/11 13:50:21;;;;;;;;;;;1.80;99.90;;;;;;4992156;28;20283;-90
2021/12/11 13:52:47;;;;;;;;;;;1.80;99.90;;;;;;4989895;28;19909;-87
2021/12/11 13:55:16;;;;;;;;;;;1.80;99.90;;;;;;4990215;28;19909;-89
2021/12/11 13:57:42;;;;;;;;;;;1.80;99.90;;;;;;4990324;28;20344;-89
2021/12/11 14:00:10;;;;;;;;;;;1.80;99.90;;;;;;4999768;28;19910;-88
2021/12/11 14:02:36;;;;;;;;;;;1.70;99.90;;;;;;4991167;28;19920;-88
2021/12/11 14:05:04;;;;;;;;;;;1.70;99.90;;;;;;4992483;28;19914;-89
2021/12/11 14:07:36;;;;;;;;;;;1.70;99.90;;;;;;4980433;28;19914;-88
2021/12/11 14:10:07;;;;;;;;;;;1.70;99.90;;;;;;4989260;28;19945;-87
2021/12/11 14:12:36;;;;;;;;;;;1.70;99.90;;;;;;4989374;28;19909;-88
2021/12/11 14:15:04;;;;;;;;;;;1.70;99.90;;;;;;4991524;28;19972;-90
2021/12/11 14:17:32;;;;;;;;;;;1.60;99.90;;;;;;5008219;28;20012;-90
2021/12/11 14:19:57;;;;;;;;;;;1.60;99.90;;;;;;4991133;28;20662;-91
2021/12/11 14:22:24;;;;;;;;;;;1.60;99.90;;;;;;4996307;28;19920;-90
2021/12/11 14:24:50;;;;;;;;;;;1.60;99.90;;;;;;5008281;28;20124;-90
2021/12/11 14:27:19;;;;;;;;;;;1.50;99.90;;;;;;4975077;28;20020;-89
2021/12/11 14:29:46;;;;;;;;;;;1.50;99.90;;;;;;5009772;28;19941;-89
2021/12/11 14:32:16;;;;;;;;;;;1.50;99.90;;;;;;4996908;28;19916;-89
2021/12/11 14:34:42;;;;;;;;;;;1.50;99.90;;;;;;4973498;28;19910;-90
2021/12/11 14:37:08;;;;;;;;;;;1.40;99.90;;;;;;4996239;28;20411;-89
2021/12/11 14:39:34;;;;;;;;;;;1.40;99.90;;;;;;4979837;28;19913;-91
2021/12/11 14:42:03;;;;;;;;;;;1.40;99.90;;;;;;4976914;28;19918;-89
2021/12/11 14:44:30;;;;;;;;;;;1.40;99.90;;;;;;4990507;28;20044;-89